createdAt,value
2022-08-17T00:02:26.049Z,57.97
2022-08-17T00:04:55.284Z,58.15
2022-08-17T00:07:22.890Z,58.06
2022-08-17T00:09:50.340Z,57.99
2022-08-17T00:12:43.735Z,57.70
2022-08-17T00:15:05.726Z,57.94
2022-08-17T00:17:35.763Z,58.10
2022-08-17T00:20:03.665Z,58.16
2022-08-17T00:22:35.576Z,58.25
2022-08-17T00:25:08.822Z,58.14
2022-08-17T00:27:36.939Z,58.24
2022-08-17T00:30:05.947Z,58.10
2022-08-17T00:33:11.941Z,58.05
2022-08-17T00:35:39.362Z,57.74
2022-08-17T00:38:09.776Z,58.19
2022-08-17T00:40:40.034Z,58.55
2022-08-17T00:43:29.899Z,58.45
2022-08-17T00:45:57.825Z,58.70
2022-08-17T00:48:50.188Z,58.67
2022-08-17T00:51:23.133Z,58.76
2022-08-17T00:53:54.565Z,59.40
2022-08-17T00:56:28.912Z,59.67
2022-08-17T00:58:56.152Z,59.85
2022-08-17T01:01:23.550Z,60.04
2022-08-17T01:03:51.842Z,59.91
2022-08-17T01:06:20.336Z,60.15
2022-08-17T01:08:47.598Z,60.43
2022-08-17T01:11:15.073Z,60.98
2022-08-17T01:13:43.496Z,61.03
2022-08-17T01:16:16.407Z,61.23
2022-08-17T01:18:45.379Z,61.26
2022-08-17T01:21:20.254Z,61.75
2022-08-17T01:23:47.488Z,61.62
2022-08-17T01:26:14.657Z,62.00
2022-08-17T01:28:55.260Z,62.24
2022-08-17T01:31:24.678Z,62.76
2022-08-17T01:33:52.152Z,64.10
2022-08-17T01:36:19.493Z,65.18
2022-08-17T01:38:46.739Z,65.24
2022-08-17T01:41:15.623Z,65.09
2022-08-17T01:44:09.033Z,64.97
2022-08-17T01:46:36.994Z,64.77
2022-08-17T01:49:11.239Z,64.81
2022-08-17T01:51:39.032Z,65.13
2022-08-17T01:54:08.419Z,65.21
2022-08-17T01:56:38.676Z,65.95
2022-08-17T01:59:06.453Z,66.65
2022-08-17T02:01:34.702Z,67.28
2022-08-17T02:04:02.186Z,67.22
2022-08-17T02:06:31.410Z,67.22
2022-08-17T02:09:02.709Z,67.33
2022-08-17T02:11:32.842Z,67.06
2022-08-17T02:14:02.825Z,66.97
2022-08-17T02:16:37.703Z,67.38
2022-08-17T02:19:07.144Z,67.08
2022-08-17T02:21:34.826Z,66.81
2022-08-17T02:24:02.171Z,67.25
2022-08-17T02:26:29.422Z,67.89
2022-08-17T02:28:56.812Z,68.05
2022-08-17T02:31:23.990Z,68.47
2022-08-17T02:34:03.528Z,68.64
2022-08-17T02:36:32.999Z,68.01
2022-08-17T02:39:04.728Z,67.87
2022-08-17T02:41:32.402Z,67.85
2022-08-17T02:44:00.334Z,67.87
2022-08-17T02:46:28.298Z,67.76
2022-08-17T02:48:58.666Z,68.82
2022-08-17T02:51:26.389Z,68.62
2022-08-17T02:53:53.678Z,68.98
2022-08-17T02:56:40.908Z,69.90
2022-08-17T02:59:08.357Z,68.86
2022-08-17T03:01:35.635Z,68.69
2022-08-17T03:04:02.954Z,68.73
2022-08-17T03:06:31.822Z,68.82
2022-08-17T03:08:59.121Z,68.82
2022-08-17T03:11:26.405Z,68.78
2022-08-17T03:13:53.734Z,69.48
2022-08-17T03:16:20.982Z,69.65
2022-08-17T03:18:48.582Z,69.47
2022-08-17T03:21:15.885Z,69.35
2022-08-17T03:23:43.242Z,69.14
2022-08-17T03:26:12.288Z,69.17
2022-08-17T03:28:42.933Z,68.66
2022-08-17T03:31:10.173Z,68.55
2022-08-17T03:33:37.521Z,68.78
2022-08-17T03:36:05.010Z,68.49
2022-08-17T03:38:39.047Z,68.36
2022-08-17T03:41:06.984Z,68.03
2022-08-17T03:43:34.720Z,68.01
2022-08-17T03:46:28.272Z,67.60
2022-08-17T03:49:25.013Z,67.51
2022-08-17T03:52:11.934Z,67.57
2022-08-17T03:54:57.898Z,67.37
2022-08-17T03:57:26.062Z,67.62
2022-08-17T03:59:53.747Z,67.71
2022-08-17T04:02:23.265Z,67.66
2022-08-17T04:04:51.100Z,68.03
2022-08-17T04:07:19.685Z,68.30
2022-08-17T04:09:47.510Z,69.66
2022-08-17T04:12:15.527Z,71.13
2022-08-17T04:14:51.785Z,72.30
2022-08-17T04:17:20.628Z,74.19
2022-08-17T04:19:47.853Z,74.20
2022-08-17T04:22:32.597Z,73.43
2022-08-17T04:25:02.356Z,72.70
2022-08-17T04:27:29.615Z,72.31
2022-08-17T04:29:56.943Z,72.13
2022-08-17T04:33:09.851Z,71.85
2022-08-17T04:35:11.567Z,71.66
2022-08-17T04:37:38.914Z,71.36
2022-08-17T04:40:26.474Z,71.66
2022-08-17T04:43:21.234Z,71.78
2022-08-17T04:45:55.700Z,72.29
2022-08-17T04:48:35.517Z,72.89
2022-08-17T04:51:10.349Z,73.30
2022-08-17T04:53:38.836Z,73.02
2022-08-17T04:56:06.316Z,72.92
2022-08-17T04:58:33.832Z,72.40
2022-08-17T05:01:01.597Z,72.28
2022-08-17T05:03:29.213Z,72.01
2022-08-17T05:05:56.579Z,72.61
2022-08-17T05:08:23.809Z,72.99
2022-08-17T05:10:51.061Z,73.56
2022-08-17T05:13:19.832Z,74.11
2022-08-17T05:15:48.082Z,74.95
2022-08-17T05:18:16.920Z,75.69
2022-08-17T05:20:46.875Z,75.83
2022-08-17T05:23:15.688Z,75.51
2022-08-17T05:25:47.472Z,75.37
2022-08-17T05:28:16.093Z,75.23
2022-08-17T05:30:45.337Z,75.12
2022-08-17T05:33:18.836Z,75.03
2022-08-17T05:35:47.741Z,74.23
2022-08-17T05:38:16.290Z,73.66
2022-08-17T05:40:44.084Z,73.82
2022-08-17T05:43:11.349Z,74.33
2022-08-17T05:46:01.985Z,73.89
2022-08-17T05:48:35.266Z,74.44
2022-08-17T05:51:33.151Z,73.94
2022-08-17T05:54:06.866Z,72.90
2022-08-17T05:56:49.310Z,72.42
2022-08-17T05:59:22.567Z,72.66
2022-08-17T06:01:49.893Z,73.17
2022-08-17T06:04:20.181Z,73.22
2022-08-17T06:06:47.603Z,73.11
2022-08-17T06:09:26.601Z,72.90
2022-08-17T06:12:03.666Z,72.25
2022-08-17T06:14:46.391Z,71.64
2022-08-17T06:17:16.215Z,71.18
2022-08-17T06:19:54.493Z,71.11
2022-08-17T06:22:23.857Z,70.84
2022-08-17T06:24:57.852Z,69.77
2022-08-17T06:27:25.044Z,70.15
2022-08-17T06:30:02.741Z,69.39
2022-08-17T06:32:31.223Z,68.16
2022-08-17T06:35:00.503Z,66.80
2022-08-17T06:37:39.246Z,65.13
2022-08-17T06:40:25.189Z,66.08
2022-08-17T06:43:12.688Z,66.73
2022-08-17T06:45:49.563Z,65.31
2022-08-17T06:48:17.966Z,65.42
2022-08-17T06:50:53.409Z,64.96
2022-08-17T06:53:24.554Z,64.51
2022-08-17T06:55:52.257Z,63.99
2022-08-17T06:58:22.308Z,63.58
2022-08-17T07:00:56.617Z,63.25
2022-08-17T07:03:38.009Z,63.12
2022-08-17T07:06:08.550Z,64.08
2022-08-17T07:08:57.875Z,64.08
2022-08-17T07:11:38.458Z,63.06
2022-08-17T07:14:17.187Z,62.75
2022-08-17T07:16:47.205Z,61.58
2022-08-17T07:19:16.868Z,60.35
2022-08-17T07:21:55.082Z,60.28
2022-08-17T07:24:30.839Z,60.59
2022-08-17T07:27:21.281Z,59.85
2022-08-17T07:29:57.049Z,58.60
2022-08-17T07:32:31.840Z,58.94
2022-08-17T07:35:00.162Z,58.40
2022-08-17T07:37:27.465Z,59.14
2022-08-17T07:39:59.655Z,57.93
2022-08-17T07:42:46.557Z,58.38
2022-08-17T07:45:34.574Z,58.82
2022-08-17T07:48:19.868Z,57.86
2022-08-17T07:50:49.595Z,57.61
2022-08-17T07:53:23.244Z,57.84
2022-08-17T07:55:51.685Z,57.14
2022-08-17T07:58:23.444Z,56.53
2022-08-17T08:01:08.295Z,56.02
2022-08-17T08:03:40.998Z,55.62
2022-08-17T08:06:23.694Z,55.34
2022-08-17T08:08:52.530Z,55.97
2022-08-17T08:11:30.609Z,55.81
2022-08-17T08:14:17.025Z,55.37
2022-08-17T08:16:56.429Z,55.08
2022-08-17T08:19:26.009Z,54.83
2022-08-17T08:22:09.632Z,55.38
2022-08-17T08:24:55.850Z,55.86
2022-08-17T08:27:34.553Z,55.47
2022-08-17T08:30:05.279Z,54.86
2022-08-17T08:32:33.141Z,54.29
2022-08-17T08:35:02.696Z,53.77
2022-08-17T08:37:49.980Z,53.86
2022-08-17T08:40:20.507Z,52.90
2022-08-17T08:43:00.101Z,52.71
2022-08-17T08:45:32.279Z,52.41
2022-08-17T08:48:56.740Z,49.99
2022-08-17T08:51:46.237Z,49.63
2022-08-17T08:54:35.944Z,48.61
2022-08-17T09:00:04.810Z,49.31
2022-08-17T09:02:46.891Z,48.43
2022-08-17T09:05:39.274Z,46.90
2022-08-17T09:08:09.251Z,45.98
2022-08-17T09:10:55.908Z,45.41
2022-08-17T09:13:26.132Z,45.15
2022-08-17T09:16:15.353Z,44.04
2022-08-17T09:19:02.448Z,44.13
2022-08-17T09:21:48.547Z,39.91
2022-08-17T09:24:20.711Z,39.25
2022-08-17T09:27:08.962Z,40.54
2022-08-17T09:29:39.116Z,39.73
2022-08-17T09:32:26.638Z,39.10
2022-08-17T09:34:56.901Z,39.51
2022-08-17T09:37:32.489Z,40.05
2022-08-17T09:40:09.664Z,40.71
2022-08-17T09:42:39.938Z,40.03
2022-08-17T09:45:07.218Z,41.05
2022-08-17T09:47:45.604Z,41.00
2022-08-17T09:50:13.418Z,40.83
2022-08-17T09:52:42.124Z,41.76
2022-08-17T09:55:09.629Z,41.76
2022-08-17T09:57:39.894Z,41.23
2022-08-17T10:00:17.285Z,40.46
2022-08-17T10:02:48.470Z,40.68
2022-08-17T10:05:21.748Z,39.27
2022-08-17T10:07:56.069Z,40.33
2022-08-17T10:10:52.468Z,39.29
2022-08-17T10:13:50.977Z,39.93
2022-08-17T10:16:26.136Z,39.69
2022-08-17T10:18:53.464Z,39.91
2022-08-17T10:21:40.550Z,40.54
2022-08-17T10:24:35.570Z,40.33
2022-08-17T10:27:07.562Z,40.48
2022-08-17T10:29:49.190Z,40.11
2022-08-17T10:32:26.312Z,39.56
2022-08-17T10:35:16.801Z,39.91
2022-08-17T10:37:50.136Z,40.85
2022-08-17T10:40:17.981Z,39.10
2022-08-17T10:42:49.055Z,39.39
2022-08-17T10:45:26.204Z,40.05
2022-08-17T10:48:04.781Z,40.56
2022-08-17T10:50:44.050Z,41.11
2022-08-17T10:53:31.189Z,41.61
2022-08-17T10:56:13.840Z,41.64
2022-08-17T10:58:50.252Z,40.93
2022-08-17T11:01:17.653Z,40.71
2022-08-17T11:03:54.781Z,41.93
2022-08-17T11:06:41.991Z,42.54
2022-08-17T11:09:12.254Z,42.13
2022-08-17T11:11:51.876Z,42.21
2022-08-17T11:14:25.290Z,42.61
2022-08-17T11:16:58.808Z,42.93
2022-08-17T11:19:28.741Z,42.05
2022-08-17T11:22:01.728Z,42.62
2022-08-17T11:24:36.506Z,42.31
2022-08-17T11:27:12.344Z,42.64
2022-08-17T11:30:12.266Z,42.73
2022-08-17T11:32:47.129Z,43.31
2022-08-17T11:35:15.097Z,42.79
2022-08-17T11:38:01.892Z,43.01
2022-08-17T11:40:48.156Z,43.38
2022-08-17T11:43:38.375Z,42.94
2022-08-17T11:46:14.194Z,43.38
2022-08-17T11:49:15.413Z,43.23
2022-08-17T11:52:07.822Z,43.88
2022-08-17T11:54:48.633Z,44.70
2022-08-17T11:57:27.941Z,44.99
2022-08-17T11:59:58.969Z,45.15
2022-08-17T12:02:29.877Z,44.60
2022-08-17T12:05:17.070Z,45.33
2022-08-17T12:08:07.925Z,45.04
2022-08-17T12:10:36.801Z,45.28
2022-08-17T12:13:10.522Z,45.27
2022-08-17T12:15:42.485Z,44.98
2022-08-17T12:18:18.162Z,45.49
2022-08-17T12:20:46.748Z,45.81
2022-08-17T12:23:28.466Z,45.54
2022-08-17T12:25:59.679Z,46.42
2022-08-17T12:28:31.282Z,47.07
2022-08-17T12:31:06.017Z,47.57
2022-08-17T12:33:36.039Z,47.50
2022-08-17T12:36:05.584Z,47.59
2022-08-17T12:38:34.713Z,48.79
2022-08-17T12:41:23.509Z,47.25
2022-08-17T12:44:02.393Z,46.80
2022-08-17T12:46:33.477Z,46.47
2022-08-17T12:49:54.450Z,46.60
2022-08-17T12:52:24.571Z,46.14
2022-08-17T12:55:01.845Z,45.73
2022-08-17T12:57:33.994Z,45.71
2022-08-17T13:00:19.970Z,46.95
2022-08-17T13:02:49.162Z,45.59
2022-08-17T13:05:36.601Z,45.88
2022-08-17T13:08:17.249Z,44.93
2022-08-17T13:10:54.066Z,45.28
2022-08-17T13:13:26.471Z,45.61
2022-08-17T13:15:53.666Z,46.53
2022-08-17T13:18:42.034Z,45.86
2022-08-17T13:21:18.858Z,46.03
2022-08-17T13:24:00.607Z,45.54
2022-08-17T13:26:33.009Z,45.55
2022-08-17T13:29:01.385Z,45.50
2022-08-17T13:31:28.536Z,46.09
2022-08-17T13:34:56.194Z,44.92
2022-08-17T13:37:35.137Z,45.95
2022-08-17T13:40:22.260Z,46.30
2022-08-17T13:42:52.572Z,44.46
2022-08-17T13:45:39.408Z,44.68
2022-08-17T13:48:16.020Z,44.51
2022-08-17T13:51:03.921Z,44.37
2022-08-17T13:53:33.060Z,44.71
2022-08-17T13:56:00.352Z,45.11
2022-08-17T13:58:29.842Z,44.63
2022-08-17T14:00:57.129Z,44.43
2022-08-17T14:03:25.159Z,43.58
2022-08-17T14:05:52.822Z,44.13
2022-08-17T14:08:20.786Z,45.57
2022-08-17T14:10:56.431Z,45.38
2022-08-17T14:13:23.892Z,45.21
2022-08-17T14:15:54.757Z,44.35
2022-08-17T14:18:53.500Z,44.61
2022-08-17T14:21:11.255Z,43.05
2022-08-17T14:23:38.689Z,43.42
2022-08-17T14:26:05.969Z,43.72
2022-08-17T14:28:33.194Z,43.81
2022-08-17T14:31:03.647Z,43.71
2022-08-17T14:33:30.899Z,44.19
2022-08-17T14:35:58.260Z,44.28
2022-08-17T14:38:25.765Z,44.63
2022-08-17T14:40:53.042Z,44.65
2022-08-17T14:43:20.988Z,45.00
2022-08-17T14:45:48.169Z,45.51
2022-08-17T14:48:15.912Z,45.12
2022-08-17T14:50:43.805Z,45.32
2022-08-17T14:53:12.071Z,44.77
2022-08-17T14:55:42.307Z,44.86
2022-08-17T14:58:09.546Z,45.16
2022-08-17T15:00:36.834Z,45.67
2022-08-17T15:03:04.123Z,45.61
2022-08-17T15:05:33.787Z,45.76
2022-08-17T15:08:01.715Z,44.96
2022-08-17T15:10:29.420Z,44.87
2022-08-17T15:12:56.786Z,45.03
2022-08-17T15:15:24.215Z,44.27
2022-08-17T15:17:51.662Z,44.17
2022-08-17T15:20:20.791Z,43.81
2022-08-17T15:22:55.631Z,44.04
2022-08-17T15:25:24.348Z,45.55
2022-08-17T15:27:51.986Z,45.70
2022-08-17T15:30:19.955Z,45.80
2022-08-17T15:32:54.429Z,45.76
2022-08-17T15:35:27.349Z,46.37
2022-08-17T15:38:11.829Z,45.77
2022-08-17T15:40:41.146Z,45.86
2022-08-17T15:43:11.358Z,46.00
2022-08-17T15:45:38.635Z,46.10
2022-08-17T15:48:06.245Z,45.73
2022-08-17T15:50:37.959Z,45.93
2022-08-17T15:53:05.906Z,46.02
2022-08-17T15:55:34.093Z,45.92
2022-08-17T15:58:01.472Z,45.73
2022-08-17T16:00:29.518Z,45.93
2022-08-17T16:03:44.311Z,45.94
2022-08-17T16:05:47.274Z,45.93
2022-08-17T16:08:20.117Z,45.87
2022-08-17T16:10:49.622Z,46.15
2022-08-17T16:13:18.206Z,46.49
2022-08-17T16:15:54.846Z,46.38
2022-08-17T16:18:26.481Z,46.65
2022-08-17T16:20:55.307Z,46.54
2022-08-17T16:23:22.949Z,46.36
2022-08-17T16:25:53.768Z,46.68
2022-08-17T16:28:23.439Z,47.03
2022-08-17T16:31:03.840Z,46.97
2022-08-17T16:33:31.786Z,47.36
2022-08-17T16:35:59.078Z,46.91
2022-08-17T16:38:27.089Z,47.20
2022-08-17T16:40:54.326Z,48.54
2022-08-17T16:43:21.684Z,49.76
2022-08-17T16:45:52.115Z,50.28
2022-08-17T16:48:19.813Z,51.52
2022-08-17T16:51:03.370Z,52.31
2022-08-17T16:53:31.923Z,52.53
2022-08-17T16:55:59.161Z,52.20
2022-08-17T16:58:26.530Z,52.66
2022-08-17T17:00:54.476Z,52.66
2022-08-17T17:03:24.780Z,52.67
2022-08-17T17:06:13.482Z,52.63
2022-08-17T17:08:46.807Z,52.68
2022-08-17T17:11:16.150Z,52.45
2022-08-17T17:13:47.131Z,52.62
2022-08-17T17:16:21.602Z,52.78
2022-08-17T17:19:03.360Z,52.16
2022-08-17T17:21:56.423Z,51.61
2022-08-17T17:24:41.386Z,52.02
2022-08-17T17:27:20.980Z,51.81
2022-08-17T17:29:49.163Z,51.73
2022-08-17T17:32:25.219Z,51.29
2022-08-17T17:34:56.664Z,50.79
2022-08-17T17:37:27.454Z,51.55
2022-08-17T17:39:56.858Z,51.58
2022-08-17T17:42:28.373Z,52.58
2022-08-17T17:44:58.715Z,53.76
2022-08-17T17:47:26.674Z,54.92
2022-08-17T17:49:59.845Z,56.51
2022-08-17T17:52:36.365Z,58.27
2022-08-17T17:55:09.600Z,59.78
2022-08-17T17:57:49.418Z,60.95
2022-08-17T18:00:19.178Z,60.39
2022-08-17T18:02:53.113Z,61.82
2022-08-17T18:05:21.169Z,63.59
2022-08-17T18:07:55.524Z,63.93
2022-08-17T18:10:33.764Z,65.48
2022-08-17T18:13:01.039Z,66.30
2022-08-17T18:15:51.295Z,68.34
2022-08-17T18:18:18.702Z,71.46
2022-08-17T18:20:53.681Z,73.69
2022-08-17T18:23:28.319Z,78.67
2022-08-17T18:25:57.077Z,80.32
2022-08-17T18:28:29.570Z,80.98
2022-08-17T18:31:15.032Z,79.60
2022-08-17T18:33:43.599Z,79.79
2022-08-17T18:36:11.629Z,78.88
2022-08-17T18:38:40.879Z,77.41
2022-08-17T18:41:23.766Z,78.35
2022-08-17T18:44:23.380Z,77.85
2022-08-17T18:47:20.127Z,77.22
2022-08-17T18:49:49.278Z,77.92
2022-08-17T18:52:21.957Z,78.76
2022-08-17T18:55:01.159Z,79.00
2022-08-17T18:57:40.082Z,79.38
2022-08-17T19:00:14.826Z,77.92
2022-08-17T19:02:52.423Z,78.44
2022-08-17T19:05:33.087Z,78.00
2022-08-17T19:08:26.505Z,77.90
2022-08-17T19:11:02.785Z,76.46
2022-08-17T19:13:43.064Z,76.92
2022-08-17T19:16:17.588Z,76.19
2022-08-17T19:18:44.850Z,76.37
2022-08-17T19:21:16.459Z,74.59
2022-08-17T19:23:54.571Z,74.49
2022-08-17T19:26:53.884Z,73.59
2022-08-17T19:29:11.824Z,72.89
2022-08-17T19:31:40.975Z,72.21
2022-08-17T19:34:08.526Z,72.70
2022-08-17T19:36:44.289Z,71.89
2022-08-17T19:39:18.247Z,71.39
2022-08-17T19:41:50.842Z,72.49
2022-08-17T19:44:26.998Z,72.48
2022-08-17T19:47:12.337Z,71.97
2022-08-17T19:49:40.730Z,72.45
2022-08-17T19:52:30.762Z,71.23
2022-08-17T19:55:05.700Z,72.16
2022-08-17T19:57:32.925Z,72.30
2022-08-17T20:00:00.278Z,72.44
2022-08-17T20:02:37.618Z,73.88
2022-08-17T20:05:08.556Z,74.25
2022-08-17T20:07:46.423Z,73.50
2022-08-17T20:10:20.627Z,72.55
2022-08-17T20:12:51.102Z,72.50
2022-08-17T20:15:25.199Z,72.41
2022-08-17T20:17:53.003Z,71.77
2022-08-17T20:20:24.661Z,71.34
2022-08-17T20:23:10.589Z,70.66
2022-08-17T20:25:53.060Z,70.53
2022-08-17T20:28:24.945Z,70.74
2022-08-17T20:30:52.587Z,71.28
2022-08-17T20:33:31.641Z,70.71
2022-08-17T20:36:02.073Z,69.90
2022-08-17T20:38:55.683Z,69.88
2022-08-17T20:41:24.346Z,69.73
2022-08-17T20:43:57.364Z,70.04
2022-08-17T20:46:36.835Z,69.79
2022-08-17T20:49:18.898Z,70.71
2022-08-17T20:51:46.232Z,69.71
2022-08-17T20:54:42.782Z,68.83
2022-08-17T20:57:30.005Z,68.80
2022-08-17T21:00:18.205Z,68.72
2022-08-17T21:02:46.973Z,67.98
2022-08-17T21:05:37.705Z,67.79
2022-08-17T21:08:18.397Z,67.13
2022-08-17T21:10:46.998Z,66.96
2022-08-17T21:13:15.390Z,67.13
2022-08-17T21:16:00.884Z,67.88
2022-08-17T21:18:38.647Z,68.16
2022-08-17T21:21:17.759Z,68.05
2022-08-17T21:24:12.763Z,68.17
2022-08-17T21:26:50.364Z,68.64
2022-08-17T21:29:32.368Z,68.84
2022-08-17T21:32:05.523Z,68.61
2022-08-17T21:34:33.638Z,68.31
2022-08-17T21:37:19.799Z,69.40
2022-08-17T21:39:51.494Z,69.24
2022-08-17T21:42:31.184Z,69.51
2022-08-17T21:45:09.225Z,69.98
2022-08-17T21:47:43.538Z,69.76
2022-08-17T21:50:30.051Z,69.88
2022-08-17T21:52:58.848Z,69.84
2022-08-17T21:55:28.409Z,70.69
2022-08-17T21:58:12.207Z,70.62
2022-08-17T22:00:44.637Z,70.76
2022-08-17T22:03:23.517Z,70.63
2022-08-17T22:05:51.564Z,71.28
2022-08-17T22:08:20.509Z,71.95
2022-08-17T22:10:50.661Z,72.43
2022-08-17T22:13:17.943Z,73.32
2022-08-17T22:15:49.938Z,73.22
2022-08-17T22:18:19.873Z,73.70
2022-08-17T22:20:51.746Z,74.39
2022-08-17T22:23:42.543Z,74.51
2022-08-17T22:26:12.729Z,75.01
2022-08-17T22:28:40.265Z,75.14
2022-08-17T22:31:09.035Z,75.42
2022-08-17T22:33:40.388Z,75.66
2022-08-17T22:36:11.079Z,75.70
2022-08-17T22:38:38.890Z,75.54
2022-08-17T22:41:24.669Z,76.15
2022-08-17T22:43:53.097Z,77.27
2022-08-17T22:46:23.891Z,76.50
2022-08-17T22:48:54.112Z,76.44
2022-08-17T22:51:23.906Z,76.25
2022-08-17T22:54:17.588Z,76.26
2022-08-17T22:57:09.987Z,75.72
2022-08-17T22:59:57.580Z,76.08
2022-08-17T23:02:26.522Z,76.79
2022-08-17T23:05:12.966Z,76.51
2022-08-17T23:07:40.751Z,76.08
2022-08-17T23:10:11.481Z,75.48
2022-08-17T23:12:39.644Z,75.30
2022-08-17T23:15:12.663Z,75.50
2022-08-17T23:17:41.932Z,76.03
2022-08-17T23:20:12.457Z,75.90
2022-08-17T23:22:52.262Z,75.96
2022-08-17T23:25:30.459Z,76.05
2022-08-17T23:27:59.209Z,77.55
2022-08-17T23:30:28.449Z,78.87
2022-08-17T23:32:56.570Z,78.71
2022-08-17T23:35:40.508Z,78.56
2022-08-17T23:38:11.920Z,79.21
2022-08-17T23:40:40.011Z,78.93
2022-08-17T23:43:24.059Z,79.83
2022-08-17T23:45:53.605Z,79.39
2022-08-17T23:48:35.133Z,78.89
2022-08-17T23:51:06.065Z,78.81
2022-08-17T23:53:34.885Z,78.74
2022-08-17T23:56:07.652Z,79.92
2022-08-17T23:58:38.711Z,79.79
